sensor_id;sensor_type;location;lat;lon;timestamp;P1;durP1;ratioP1;P2;durP2;ratioP2
22282;SDS011;11310;51.528;21.204;2022-11-12T00:01:32;15.23;;;7.05;;
22282;SDS011;11310;51.528;21.204;2022-11-12T00:04:20;15.25;;;6.85;;
22282;SDS011;11310;51.528;21.204;2022-11-12T00:07:07;13.18;;;6.18;;
22282;SDS011;11310;51.528;21.204;2022-11-12T00:09:55;12.13;;;6.63;;
22282;SDS011;11310;51.528;21.204;2022-11-12T00:12:42;12.75;;;6.72;;
22282;SDS011;11310;51.528;21.204;2022-11-12T00:15:30;13.38;;;6.45;;
22282;SDS011;11310;51.528;21.204;2022-11-12T00:18:17;11.73;;;6.28;;
22282;SDS011;11310;51.528;21.204;2022-11-12T00:21:04;11.60;;;6.22;;
22282;SDS011;11310;51.528;21.204;2022-11-12T00:23:52;15.70;;;6.72;;
22282;SDS011;11310;51.528;21.204;2022-11-12T00:26:41;13.77;;;6.45;;
22282;SDS011;11310;51.528;21.204;2022-11-12T00:29:28;15.57;;;6.55;;
22282;SDS011;11310;51.528;21.204;2022-11-12T00:32:16;12.43;;;5.93;;
22282;SDS011;11310;51.528;21.204;2022-11-12T00:35:04;12.85;;;6.03;;
22282;SDS011;11310;51.528;21.204;2022-11-12T00:37:58;13.82;;;6.18;;
22282;SDS011;11310;51.528;21.204;2022-11-12T00:40:46;14.13;;;6.32;;
22282;SDS011;11310;51.528;21.204;2022-11-12T00:43:34;11.85;;;6.20;;
22282;SDS011;11310;51.528;21.204;2022-11-12T00:46:21;17.42;;;7.05;;
22282;SDS011;11310;51.528;21.204;2022-11-12T00:49:09;13.38;;;6.65;;
22282;SDS011;11310;51.528;21.204;2022-11-12T00:51:56;12.55;;;6.68;;
22282;SDS011;11310;51.528;21.204;2022-11-12T00:54:43;13.13;;;6.43;;
22282;SDS011;11310;51.528;21.204;2022-11-12T00:57:31;11.10;;;5.93;;
22282;SDS011;11310;51.528;21.204;2022-11-12T01:00:20;13.02;;;6.05;;
22282;SDS011;11310;51.528;21.204;2022-11-12T01:03:08;11.48;;;6.32;;
22282;SDS011;11310;51.528;21.204;2022-11-12T01:06:00;13.85;;;6.18;;
22282;SDS011;11310;51.528;21.204;2022-11-12T01:08:48;13.63;;;6.57;;
22282;SDS011;11310;51.528;21.204;2022-11-12T01:11:36;11.15;;;5.60;;
22282;SDS011;11310;51.528;21.204;2022-11-12T01:14:23;13.50;;;6.07;;
22282;SDS011;11310;51.528;21.204;2022-11-12T01:17:12;15.52;;;5.90;;
22282;SDS011;11310;51.528;21.204;2022-11-12T01:19:59;12.98;;;5.72;;
22282;SDS011;11310;51.528;21.204;2022-11-12T01:22:46;12.02;;;5.82;;
22282;SDS011;11310;51.528;21.204;2022-11-12T01:25:36;13.55;;;6.25;;
22282;SDS011;11310;51.528;21.204;2022-11-12T01:28:23;12.70;;;6.20;;
22282;SDS011;11310;51.528;21.204;2022-11-12T01:31:12;11.63;;;6.22;;
22282;SDS011;11310;51.528;21.204;2022-11-12T01:34:03;15.70;;;5.75;;
22282;SDS011;11310;51.528;21.204;2022-11-12T01:36:51;11.82;;;6.25;;
22282;SDS011;11310;51.528;21.204;2022-11-12T01:39:39;12.85;;;5.80;;
22282;SDS011;11310;51.528;21.204;2022-11-12T01:42:28;15.57;;;6.63;;
22282;SDS011;11310;51.528;21.204;2022-11-12T01:45:16;13.77;;;6.75;;
22282;SDS011;11310;51.528;21.204;2022-11-12T01:48:03;18.00;;;6.38;;
22282;SDS011;11310;51.528;21.204;2022-11-12T01:50:52;13.60;;;6.15;;
22282;SDS011;11310;51.528;21.204;2022-11-12T01:53:42;12.98;;;6.25;;
22282;SDS011;11310;51.528;21.204;2022-11-12T01:56:33;15.43;;;6.45;;
22282;SDS011;11310;51.528;21.204;2022-11-12T01:59:27;18.02;;;6.78;;
22282;SDS011;11310;51.528;21.204;2022-11-12T02:02:19;16.35;;;6.50;;
22282;SDS011;11310;51.528;21.204;2022-11-12T02:05:08;11.25;;;6.07;;
22282;SDS011;11310;51.528;21.204;2022-11-12T02:07:57;15.38;;;5.95;;
22282;SDS011;11310;51.528;21.204;2022-11-12T02:10:47;14.13;;;5.75;;
22282;SDS011;11310;51.528;21.204;2022-11-12T02:13:34;15.43;;;6.38;;
22282;SDS011;11310;51.528;21.204;2022-11-12T02:16:39;13.20;;;6.43;;
22282;SDS011;11310;51.528;21.204;2022-11-12T02:19:29;13.13;;;6.22;;
22282;SDS011;11310;51.528;21.204;2022-11-12T02:22:18;11.40;;;5.78;;
22282;SDS011;11310;51.528;21.204;2022-11-12T02:25:06;15.45;;;5.65;;
22282;SDS011;11310;51.528;21.204;2022-11-12T02:27:55;12.52;;;5.97;;
22282;SDS011;11310;51.528;21.204;2022-11-12T02:30:44;15.07;;;6.28;;
22282;SDS011;11310;51.528;21.204;2022-11-12T02:33:33;17.45;;;7.03;;
22282;SDS011;11310;51.528;21.204;2022-11-12T02:36:20;15.13;;;6.97;;
22282;SDS011;11310;51.528;21.204;2022-11-12T02:39:09;13.93;;;6.60;;
22282;SDS011;11310;51.528;21.204;2022-11-12T02:41:56;14.48;;;6.03;;
22282;SDS011;11310;51.528;21.204;2022-11-12T02:44:43;12.13;;;5.78;;
22282;SDS011;11310;51.528;21.204;2022-11-12T02:47:30;14.98;;;5.50;;
22282;SDS011;11310;51.528;21.204;2022-11-12T02:50:18;14.13;;;6.03;;
22282;SDS011;11310;51.528;21.204;2022-11-12T02:53:05;15.98;;;6.03;;
22282;SDS011;11310;51.528;21.204;2022-11-12T02:55:53;12.13;;;5.68;;
22282;SDS011;11310;51.528;21.204;2022-11-12T02:58:40;11.90;;;6.00;;
22282;SDS011;11310;51.528;21.204;2022-11-12T03:01:27;16.65;;;6.72;;
22282;SDS011;11310;51.528;21.204;2022-11-12T03:04:15;11.90;;;6.38;;
22282;SDS011;11310;51.528;21.204;2022-11-12T03:07:02;14.45;;;6.70;;
22282;SDS011;11310;51.528;21.204;2022-11-12T03:09:49;12.10;;;5.90;;
22282;SDS011;11310;51.528;21.204;2022-11-12T03:12:38;15.30;;;6.63;;
22282;SDS011;11310;51.528;21.204;2022-11-12T03:15:25;13.60;;;5.78;;
22282;SDS011;11310;51.528;21.204;2022-11-12T03:18:13;15.02;;;6.75;;
22282;SDS011;11310;51.528;21.204;2022-11-12T03:21:02;10.25;;;5.03;;
22282;SDS011;11310;51.528;21.204;2022-11-12T03:23:49;11.93;;;6.00;;
22282;SDS011;11310;51.528;21.204;2022-11-12T03:26:36;13.18;;;6.03;;
22282;SDS011;11310;51.528;21.204;2022-11-12T03:29:25;15.25;;;6.38;;
22282;SDS011;11310;51.528;21.204;2022-11-12T03:32:12;15.20;;;6.57;;
22282;SDS011;11310;51.528;21.204;2022-11-12T03:34:59;15.35;;;5.95;;
22282;SDS011;11310;51.528;21.204;2022-11-12T03:37:46;15.00;;;6.57;;
22282;SDS011;11310;51.528;21.204;2022-11-12T03:40:33;14.32;;;6.10;;
22282;SDS011;11310;51.528;21.204;2022-11-12T03:43:20;14.63;;;5.82;;
22282;SDS011;11310;51.528;21.204;2022-11-12T03:46:09;11.95;;;5.93;;
22282;SDS011;11310;51.528;21.204;2022-11-12T03:48:56;11.82;;;5.88;;
22282;SDS011;11310;51.528;21.204;2022-11-12T03:51:47;15.88;;;6.35;;
22282;SDS011;11310;51.528;21.204;2022-11-12T03:54:34;12.57;;;6.18;;
22282;SDS011;11310;51.528;21.204;2022-11-12T03:57:21;16.83;;;6.28;;
22282;SDS011;11310;51.528;21.204;2022-11-12T04:00:09;16.38;;;6.18;;
22282;SDS011;11310;51.528;21.204;2022-11-12T04:03:00;15.10;;;6.13;;
22282;SDS011;11310;51.528;21.204;2022-11-12T04:05:47;14.60;;;6.00;;
22282;SDS011;11310;51.528;21.204;2022-11-12T04:08:52;13.77;;;5.55;;
22282;SDS011;11310;51.528;21.204;2022-11-12T04:11:39;13.98;;;6.40;;
22282;SDS011;11310;51.528;21.204;2022-11-12T04:14:26;13.95;;;5.55;;
22282;SDS011;11310;51.528;21.204;2022-11-12T04:17:14;13.60;;;5.57;;
22282;SDS011;11310;51.528;21.204;2022-11-12T04:20:20;13.63;;;5.65;;
22282;SDS011;11310;51.528;21.204;2022-11-12T04:23:25;11.70;;;5.57;;
22282;SDS011;11310;51.528;21.204;2022-11-12T04:26:12;11.95;;;5.60;;
22282;SDS011;11310;51.528;21.204;2022-11-12T04:29:10;14.23;;;5.95;;
22282;SDS011;11310;51.528;21.204;2022-11-12T04:32:21;13.02;;;6.43;;
22282;SDS011;11310;51.528;21.204;2022-11-12T04:35:09;14.52;;;5.80;;
22282;SDS011;11310;51.528;21.204;2022-11-12T04:37:59;13.45;;;5.63;;
22282;SDS011;11310;51.528;21.204;2022-11-12T04:40:47;13.98;;;6.03;;
22282;SDS011;11310;51.528;21.204;2022-11-12T04:43:52;13.88;;;6.20;;
22282;SDS011;11310;51.528;21.204;2022-11-12T04:46:56;14.05;;;6.32;;
22282;SDS011;11310;51.528;21.204;2022-11-12T04:49:44;15.30;;;6.53;;
22282;SDS011;11310;51.528;21.204;2022-11-12T04:52:33;16.67;;;7.10;;
22282;SDS011;11310;51.528;21.204;2022-11-12T04:55:21;13.63;;;5.68;;
22282;SDS011;11310;51.528;21.204;2022-11-12T04:58:08;12.88;;;5.65;;
22282;SDS011;11310;51.528;21.204;2022-11-12T05:00:56;16.15;;;6.40;;
22282;SDS011;11310;51.528;21.204;2022-11-12T05:03:43;19.35;;;6.40;;
22282;SDS011;11310;51.528;21.204;2022-11-12T05:06:31;15.38;;;6.68;;
22282;SDS011;11310;51.528;21.204;2022-11-12T05:09:35;14.70;;;6.50;;
22282;SDS011;11310;51.528;21.204;2022-11-12T05:12:25;13.52;;;6.35;;
22282;SDS011;11310;51.528;21.204;2022-11-12T05:15:12;13.65;;;6.43;;
22282;SDS011;11310;51.528;21.204;2022-11-12T05:18:00;17.05;;;6.40;;
22282;SDS011;11310;51.528;21.204;2022-11-12T05:20:47;15.48;;;6.50;;
22282;SDS011;11310;51.528;21.204;2022-11-12T05:23:36;18.60;;;7.93;;
22282;SDS011;11310;51.528;21.204;2022-11-12T05:26:24;18.98;;;7.35;;
22282;SDS011;11310;51.528;21.204;2022-11-12T05:29:12;16.92;;;7.53;;
22282;SDS011;11310;51.528;21.204;2022-11-12T05:31:59;15.40;;;6.85;;
22282;SDS011;11310;51.528;21.204;2022-11-12T05:34:47;17.60;;;6.93;;
22282;SDS011;11310;51.528;21.204;2022-11-12T05:37:35;19.05;;;7.28;;
22282;SDS011;11310;51.528;21.204;2022-11-12T05:40:22;16.70;;;7.18;;
22282;SDS011;11310;51.528;21.204;2022-11-12T05:43:09;18.08;;;6.82;;
22282;SDS011;11310;51.528;21.204;2022-11-12T05:45:58;16.95;;;7.82;;
22282;SDS011;11310;51.528;21.204;2022-11-12T05:48:45;14.35;;;6.90;;
22282;SDS011;11310;51.528;21.204;2022-11-12T05:51:32;15.27;;;7.88;;
22282;SDS011;11310;51.528;21.204;2022-11-12T05:54:20;16.15;;;7.30;;
22282;SDS011;11310;51.528;21.204;2022-11-12T05:57:09;17.63;;;7.50;;
22282;SDS011;11310;51.528;21.204;2022-11-12T05:59:56;17.02;;;7.68;;
22282;SDS011;11310;51.528;21.204;2022-11-12T06:02:45;15.50;;;6.85;;
22282;SDS011;11310;51.528;21.204;2022-11-12T06:05:32;16.98;;;7.53;;
22282;SDS011;11310;51.528;21.204;2022-11-12T06:08:20;18.70;;;7.80;;
22282;SDS011;11310;51.528;21.204;2022-11-12T06:11:07;16.13;;;7.78;;
22282;SDS011;11310;51.528;21.204;2022-11-12T06:13:54;16.10;;;7.38;;
22282;SDS011;11310;51.528;21.204;2022-11-12T06:16:42;21.30;;;7.45;;
22282;SDS011;11310;51.528;21.204;2022-11-12T06:19:31;20.45;;;7.90;;
22282;SDS011;11310;51.528;21.204;2022-11-12T06:22:18;19.75;;;7.80;;
22282;SDS011;11310;51.528;21.204;2022-11-12T06:25:06;19.65;;;7.95;;
22282;SDS011;11310;51.528;21.204;2022-11-12T06:27:53;16.98;;;8.02;;
22282;SDS011;11310;51.528;21.204;2022-11-12T06:30:41;31.63;;;10.27;;
22282;SDS011;11310;51.528;21.204;2022-11-12T06:33:27;26.75;;;9.85;;
22282;SDS011;11310;51.528;21.204;2022-11-12T06:36:17;19.92;;;8.93;;
22282;SDS011;11310;51.528;21.204;2022-11-12T06:39:05;18.60;;;7.63;;
22282;SDS011;11310;51.528;21.204;2022-11-12T06:41:53;21.30;;;8.40;;
22282;SDS011;11310;51.528;21.204;2022-11-12T06:44:40;18.95;;;8.63;;
22282;SDS011;11310;51.528;21.204;2022-11-12T06:47:27;19.15;;;8.35;;
22282;SDS011;11310;51.528;21.204;2022-11-12T06:50:14;26.60;;;9.23;;
22282;SDS011;11310;51.528;21.204;2022-11-12T06:53:03;21.27;;;8.98;;
22282;SDS011;11310;51.528;21.204;2022-11-12T06:55:51;18.38;;;9.10;;
22282;SDS011;11310;51.528;21.204;2022-11-12T06:58:38;19.33;;;8.52;;
22282;SDS011;11310;51.528;21.204;2022-11-12T07:01:26;17.95;;;8.38;;
22282;SDS011;11310;51.528;21.204;2022-11-12T07:04:13;25.08;;;9.70;;
22282;SDS011;11310;51.528;21.204;2022-11-12T07:07:00;25.25;;;9.40;;
22282;SDS011;11310;51.528;21.204;2022-11-12T07:09:56;23.58;;;9.05;;
22282;SDS011;11310;51.528;21.204;2022-11-12T07:12:43;18.77;;;8.80;;
22282;SDS011;11310;51.528;21.204;2022-11-12T07:15:37;18.90;;;9.02;;
22282;SDS011;11310;51.528;21.204;2022-11-12T07:18:25;21.30;;;9.20;;
22282;SDS011;11310;51.528;21.204;2022-11-12T07:21:14;18.65;;;8.13;;
22282;SDS011;11310;51.528;21.204;2022-11-12T07:24:03;16.48;;;7.97;;
22282;SDS011;11310;51.528;21.204;2022-11-12T07:26:52;26.17;;;8.60;;
22282;SDS011;11310;51.528;21.204;2022-11-12T07:29:39;16.40;;;7.85;;
22282;SDS011;11310;51.528;21.204;2022-11-12T07:32:33;18.15;;;8.18;;
22282;SDS011;11310;51.528;21.204;2022-11-12T07:35:27;21.55;;;8.75;;
22282;SDS011;11310;51.528;21.204;2022-11-12T07:38:14;17.83;;;7.90;;
22282;SDS011;11310;51.528;21.204;2022-11-12T07:41:03;25.67;;;9.52;;
22282;SDS011;11310;51.528;21.204;2022-11-12T07:43:53;24.38;;;8.55;;
22282;SDS011;11310;51.528;21.204;2022-11-12T07:46:40;21.23;;;9.45;;
22282;SDS011;11310;51.528;21.204;2022-11-12T07:49:27;19.63;;;8.75;;
22282;SDS011;11310;51.528;21.204;2022-11-12T07:52:15;21.67;;;10.00;;
22282;SDS011;11310;51.528;21.204;2022-11-12T07:55:03;23.63;;;9.43;;
22282;SDS011;11310;51.528;21.204;2022-11-12T07:57:51;25.58;;;9.98;;
22282;SDS011;11310;51.528;21.204;2022-11-12T08:00:41;18.90;;;9.30;;
22282;SDS011;11310;51.528;21.204;2022-11-12T08:03:27;21.33;;;9.05;;
22282;SDS011;11310;51.528;21.204;2022-11-12T08:06:15;17.58;;;8.15;;
22282;SDS011;11310;51.528;21.204;2022-11-12T08:09:02;20.30;;;8.25;;
22282;SDS011;11310;51.528;21.204;2022-11-12T08:11:52;18.15;;;8.63;;
22282;SDS011;11310;51.528;21.204;2022-11-12T08:14:41;21.58;;;8.75;;
22282;SDS011;11310;51.528;21.204;2022-11-12T08:17:30;18.35;;;8.32;;
22282;SDS011;11310;51.528;21.204;2022-11-12T08:20:17;18.50;;;8.15;;
22282;SDS011;11310;51.528;21.204;2022-11-12T08:23:04;19.30;;;8.20;;
22282;SDS011;11310;51.528;21.204;2022-11-12T08:25:52;19.00;;;8.27;;
22282;SDS011;11310;51.528;21.204;2022-11-12T08:28:43;20.60;;;7.88;;
22282;SDS011;11310;51.528;21.204;2022-11-12T08:31:30;14.48;;;7.32;;
22282;SDS011;11310;51.528;21.204;2022-11-12T08:34:19;19.65;;;7.13;;
22282;SDS011;11310;51.528;21.204;2022-11-12T08:37:07;14.25;;;7.13;;
22282;SDS011;11310;51.528;21.204;2022-11-12T08:39:54;15.05;;;6.80;;
22282;SDS011;11310;51.528;21.204;2022-11-12T08:42:41;16.33;;;6.72;;
22282;SDS011;11310;51.528;21.204;2022-11-12T08:45:30;17.85;;;7.97;;
22282;SDS011;11310;51.528;21.204;2022-11-12T08:48:19;15.10;;;7.32;;
22282;SDS011;11310;51.528;21.204;2022-11-12T08:51:07;15.30;;;6.78;;
22282;SDS011;11310;51.528;21.204;2022-11-12T08:53:55;15.48;;;7.78;;
22282;SDS011;11310;51.528;21.204;2022-11-12T08:56:43;15.82;;;7.07;;
22282;SDS011;11310;51.528;21.204;2022-11-12T08:59:33;17.90;;;7.03;;
22282;SDS011;11310;51.528;21.204;2022-11-12T09:02:21;14.23;;;7.28;;
22282;SDS011;11310;51.528;21.204;2022-11-12T09:05:08;14.25;;;7.20;;
22282;SDS011;11310;51.528;21.204;2022-11-12T09:07:58;15.85;;;6.95;;
22282;SDS011;11310;51.528;21.204;2022-11-12T09:10:45;15.48;;;7.45;;
22282;SDS011;11310;51.528;21.204;2022-11-12T09:13:33;16.80;;;7.40;;
22282;SDS011;11310;51.528;21.204;2022-11-12T09:16:21;14.88;;;6.45;;
22282;SDS011;11310;51.528;21.204;2022-11-12T09:19:09;15.55;;;7.25;;
22282;SDS011;11310;51.528;21.204;2022-11-12T09:21:56;19.13;;;7.57;;
22282;SDS011;11310;51.528;21.204;2022-11-12T09:24:45;17.75;;;8.07;;
22282;SDS011;11310;51.528;21.204;2022-11-12T09:27:32;14.95;;;7.28;;
22282;SDS011;11310;51.528;21.204;2022-11-12T09:30:20;16.60;;;7.93;;
22282;SDS011;11310;51.528;21.204;2022-11-12T09:33:07;16.13;;;7.65;;
22282;SDS011;11310;51.528;21.204;2022-11-12T09:35:55;13.35;;;6.70;;
22282;SDS011;11310;51.528;21.204;2022-11-12T09:38:45;15.57;;;7.05;;
22282;SDS011;11310;51.528;21.204;2022-11-12T09:41:34;14.13;;;7.03;;
22282;SDS011;11310;51.528;21.204;2022-11-12T09:44:23;11.75;;;6.22;;
22282;SDS011;11310;51.528;21.204;2022-11-12T09:47:12;13.13;;;6.43;;
22282;SDS011;11310;51.528;21.204;2022-11-12T09:50:04;13.38;;;6.72;;
22282;SDS011;11310;51.528;21.204;2022-11-12T09:53:06;15.32;;;7.30;;
22282;SDS011;11310;51.528;21.204;2022-11-12T09:56:00;15.00;;;7.15;;
22282;SDS011;11310;51.528;21.204;2022-11-12T09:58:53;13.57;;;6.63;;
22282;SDS011;11310;51.528;21.204;2022-11-12T10:01:43;14.68;;;6.68;;
22282;SDS011;11310;51.528;21.204;2022-11-12T10:04:43;15.60;;;7.13;;
22282;SDS011;11310;51.528;21.204;2022-11-12T10:07:39;17.15;;;8.05;;
22282;SDS011;11310;51.528;21.204;2022-11-12T10:10:39;13.07;;;7.07;;
22282;SDS011;11310;51.528;21.204;2022-11-12T10:13:34;19.58;;;8.27;;
22282;SDS011;11310;51.528;21.204;2022-11-12T10:16:38;14.48;;;7.47;;
22282;SDS011;11310;51.528;21.204;2022-11-12T10:19:39;19.83;;;8.52;;
22282;SDS011;11310;51.528;21.204;2022-11-12T10:22:36;18.15;;;8.80;;
22282;SDS011;11310;51.528;21.204;2022-11-12T10:25:32;18.58;;;8.65;;
22282;SDS011;11310;51.528;21.204;2022-11-12T10:28:24;16.90;;;8.38;;
22282;SDS011;11310;51.528;21.204;2022-11-12T10:31:21;16.23;;;8.27;;
22282;SDS011;11310;51.528;21.204;2022-11-12T10:34:15;19.35;;;8.68;;
22282;SDS011;11310;51.528;21.204;2022-11-12T10:37:05;21.13;;;8.88;;
22282;SDS011;11310;51.528;21.204;2022-11-12T10:39:52;18.80;;;8.52;;
22282;SDS011;11310;51.528;21.204;2022-11-12T10:42:54;18.25;;;9.05;;
22282;SDS011;11310;51.528;21.204;2022-11-12T10:45:43;20.67;;;9.95;;
22282;SDS011;11310;51.528;21.204;2022-11-12T10:48:31;18.13;;;9.07;;
22282;SDS011;11310;51.528;21.204;2022-11-12T10:51:24;21.27;;;9.20;;
22282;SDS011;11310;51.528;21.204;2022-11-12T10:57:22;19.77;;;9.68;;
22282;SDS011;11310;51.528;21.204;2022-11-12T11:00:15;22.60;;;10.00;;
22282;SDS011;11310;51.528;21.204;2022-11-12T11:03:06;21.90;;;10.10;;
22282;SDS011;11310;51.528;21.204;2022-11-12T11:06:03;21.67;;;9.20;;
22282;SDS011;11310;51.528;21.204;2022-11-12T11:09:07;22.75;;;9.32;;
22282;SDS011;11310;51.528;21.204;2022-11-12T11:12:00;22.60;;;10.23;;
22282;SDS011;11310;51.528;21.204;2022-11-12T11:14:51;19.77;;;9.35;;
22282;SDS011;11310;51.528;21.204;2022-11-12T11:17:53;19.40;;;9.95;;
22282;SDS011;11310;51.528;21.204;2022-11-12T11:20:43;22.80;;;10.30;;
22282;SDS011;11310;51.528;21.204;2022-11-12T11:23:37;24.73;;;10.85;;
22282;SDS011;11310;51.528;21.204;2022-11-12T11:26:36;20.80;;;10.63;;
22282;SDS011;11310;51.528;21.204;2022-11-12T11:29:42;22.05;;;9.23;;
22282;SDS011;11310;51.528;21.204;2022-11-12T11:36:08;26.75;;;10.60;;
22282;SDS011;11310;51.528;21.204;2022-11-12T11:39:13;21.00;;;9.95;;
22282;SDS011;11310;51.528;21.204;2022-11-12T11:42:19;24.80;;;11.07;;
22282;SDS011;11310;51.528;21.204;2022-11-12T11:45:20;22.33;;;10.43;;
22282;SDS011;11310;51.528;21.204;2022-11-12T11:48:16;20.55;;;10.35;;
22282;SDS011;11310;51.528;21.204;2022-11-12T11:51:23;26.90;;;11.27;;
22282;SDS011;11310;51.528;21.204;2022-11-12T11:54:30;26.10;;;11.35;;
22282;SDS011;11310;51.528;21.204;2022-11-12T11:57:36;22.85;;;11.18;;
22282;SDS011;11310;51.528;21.204;2022-11-12T12:00:34;27.27;;;11.82;;
22282;SDS011;11310;51.528;21.204;2022-11-12T12:03:35;25.15;;;11.00;;
22282;SDS011;11310;51.528;21.204;2022-11-12T12:06:34;22.25;;;10.88;;
22282;SDS011;11310;51.528;21.204;2022-11-12T12:09:27;22.50;;;11.98;;
22282;SDS011;11310;51.528;21.204;2022-11-12T12:12:26;22.83;;;11.70;;
22282;SDS011;11310;51.528;21.204;2022-11-12T12:15:40;22.23;;;10.82;;
22282;SDS011;11310;51.528;21.204;2022-11-12T12:18:36;22.63;;;11.73;;
22282;SDS011;11310;51.528;21.204;2022-11-12T12:21:31;22.00;;;10.85;;
22282;SDS011;11310;51.528;21.204;2022-11-12T12:24:24;23.23;;;11.68;;
22282;SDS011;11310;51.528;21.204;2022-11-12T12:27:16;22.83;;;11.65;;
22282;SDS011;11310;51.528;21.204;2022-11-12T12:30:13;25.60;;;11.05;;
22282;SDS011;11310;51.528;21.204;2022-11-12T12:33:09;21.48;;;10.38;;
22282;SDS011;11310;51.528;21.204;2022-11-12T12:36:16;22.55;;;11.50;;
22282;SDS011;11310;51.528;21.204;2022-11-12T12:39:10;23.07;;;12.27;;
22282;SDS011;11310;51.528;21.204;2022-11-12T12:42:04;23.52;;;11.85;;
22282;SDS011;11310;51.528;21.204;2022-11-12T12:45:02;26.00;;;12.60;;
22282;SDS011;11310;51.528;21.204;2022-11-12T12:48:14;22.45;;;11.20;;
22282;SDS011;11310;51.528;21.204;2022-11-12T12:51:06;22.55;;;11.48;;
22282;SDS011;11310;51.528;21.204;2022-11-12T12:53:54;23.08;;;12.10;;
22282;SDS011;11310;51.528;21.204;2022-11-12T12:56:42;23.48;;;11.77;;
22282;SDS011;11310;51.528;21.204;2022-11-12T12:59:32;25.83;;;11.73;;
22282;SDS011;11310;51.528;21.204;2022-11-12T13:02:23;22.02;;;11.63;;
22282;SDS011;11310;51.528;21.204;2022-11-12T13:05:24;24.67;;;10.82;;
22282;SDS011;11310;51.528;21.204;2022-11-12T13:11:05;22.25;;;10.88;;
22282;SDS011;11310;51.528;21.204;2022-11-12T13:13:52;23.00;;;11.15;;
22282;SDS011;11310;51.528;21.204;2022-11-12T13:23:06;22.45;;;11.63;;
22282;SDS011;11310;51.528;21.204;2022-11-12T13:29:19;20.35;;;10.73;;
22282;SDS011;11310;51.528;21.204;2022-11-12T13:35:34;21.60;;;11.05;;
22282;SDS011;11310;51.528;21.204;2022-11-12T13:38:21;23.70;;;12.52;;
22282;SDS011;11310;51.528;21.204;2022-11-12T13:41:14;25.42;;;12.50;;
22282;SDS011;11310;51.528;21.204;2022-11-12T13:44:04;21.90;;;12.43;;
22282;SDS011;11310;51.528;21.204;2022-11-12T13:46:53;26.23;;;12.50;;
22282;SDS011;11310;51.528;21.204;2022-11-12T13:49:43;20.30;;;11.48;;
22282;SDS011;11310;51.528;21.204;2022-11-12T13:52:34;22.00;;;11.55;;
22282;SDS011;11310;51.528;21.204;2022-11-12T13:55:21;25.10;;;12.77;;
22282;SDS011;11310;51.528;21.204;2022-11-12T13:58:16;21.80;;;11.35;;
22282;SDS011;11310;51.528;21.204;2022-11-12T14:01:06;25.38;;;12.10;;
22282;SDS011;11310;51.528;21.204;2022-11-12T14:03:53;24.15;;;11.82;;
22282;SDS011;11310;51.528;21.204;2022-11-12T14:06:41;24.52;;;13.07;;
22282;SDS011;11310;51.528;21.204;2022-11-12T14:09:35;25.73;;;12.00;;
22282;SDS011;11310;51.528;21.204;2022-11-12T14:12:46;25.27;;;11.82;;
22282;SDS011;11310;51.528;21.204;2022-11-12T14:15:51;21.52;;;11.00;;
22282;SDS011;11310;51.528;21.204;2022-11-12T14:18:51;22.88;;;11.18;;
22282;SDS011;11310;51.528;21.204;2022-11-12T14:22:00;26.17;;;12.70;;
22282;SDS011;11310;51.528;21.204;2022-11-12T14:24:59;27.85;;;12.68;;
22282;SDS011;11310;51.528;21.204;2022-11-12T14:27:48;25.35;;;12.05;;
22282;SDS011;11310;51.528;21.204;2022-11-12T14:30:42;23.08;;;11.95;;
22282;SDS011;11310;51.528;21.204;2022-11-12T14:33:30;25.17;;;12.30;;
22282;SDS011;11310;51.528;21.204;2022-11-12T14:36:19;24.10;;;12.32;;
22282;SDS011;11310;51.528;21.204;2022-11-12T14:39:08;27.23;;;13.65;;
22282;SDS011;11310;51.528;21.204;2022-11-12T14:41:59;31.17;;;14.05;;
22282;SDS011;11310;51.528;21.204;2022-11-12T14:44:46;31.10;;;13.77;;
22282;SDS011;11310;51.528;21.204;2022-11-12T14:47:33;30.42;;;15.65;;
22282;SDS011;11310;51.528;21.204;2022-11-12T14:50:23;29.75;;;14.65;;
22282;SDS011;11310;51.528;21.204;2022-11-12T14:53:14;24.92;;;12.90;;
22282;SDS011;11310;51.528;21.204;2022-11-12T14:56:20;29.75;;;15.00;;
22282;SDS011;11310;51.528;21.204;2022-11-12T14:59:21;32.22;;;15.18;;
22282;SDS011;11310;51.528;21.204;2022-11-12T15:02:10;29.38;;;14.23;;
22282;SDS011;11310;51.528;21.204;2022-11-12T15:05:20;26.02;;;12.57;;
22282;SDS011;11310;51.528;21.204;2022-11-12T15:08:09;34.63;;;15.27;;
22282;SDS011;11310;51.528;21.204;2022-11-12T15:11:12;35.75;;;15.68;;
22282;SDS011;11310;51.528;21.204;2022-11-12T15:14:08;31.38;;;16.70;;
22282;SDS011;11310;51.528;21.204;2022-11-12T15:17:17;30.45;;;15.35;;
22282;SDS011;11310;51.528;21.204;2022-11-12T15:20:14;28.60;;;14.60;;
22282;SDS011;11310;51.528;21.204;2022-11-12T15:23:13;28.83;;;14.73;;
22282;SDS011;11310;51.528;21.204;2022-11-12T15:26:04;28.67;;;14.15;;
22282;SDS011;11310;51.528;21.204;2022-11-12T15:29:00;31.73;;;16.10;;
22282;SDS011;11310;51.528;21.204;2022-11-12T15:32:01;34.28;;;14.82;;
22282;SDS011;11310;51.528;21.204;2022-11-12T15:34:57;33.38;;;15.30;;
22282;SDS011;11310;51.528;21.204;2022-11-12T15:37:45;32.17;;;14.77;;
22282;SDS011;11310;51.528;21.204;2022-11-12T15:40:39;30.55;;;15.43;;
22282;SDS011;11310;51.528;21.204;2022-11-12T15:43:33;29.90;;;15.27;;
22282;SDS011;11310;51.528;21.204;2022-11-12T15:46:27;30.58;;;15.90;;
22282;SDS011;11310;51.528;21.204;2022-11-12T15:49:14;29.75;;;13.90;;
22282;SDS011;11310;51.528;21.204;2022-11-12T15:52:03;26.48;;;14.23;;
22282;SDS011;11310;51.528;21.204;2022-11-12T15:54:50;29.42;;;14.48;;
22282;SDS011;11310;51.528;21.204;2022-11-12T15:57:39;28.17;;;14.18;;
22282;SDS011;11310;51.528;21.204;2022-11-12T16:00:29;32.20;;;14.82;;
22282;SDS011;11310;51.528;21.204;2022-11-12T16:03:18;27.58;;;13.93;;
22282;SDS011;11310;51.528;21.204;2022-11-12T16:06:08;28.95;;;15.25;;
22282;SDS011;11310;51.528;21.204;2022-11-12T16:08:57;31.17;;;15.30;;
22282;SDS011;11310;51.528;21.204;2022-11-12T16:11:44;29.20;;;14.50;;
22282;SDS011;11310;51.528;21.204;2022-11-12T16:14:32;27.38;;;14.55;;
22282;SDS011;11310;51.528;21.204;2022-11-12T16:17:19;28.73;;;14.73;;
22282;SDS011;11310;51.528;21.204;2022-11-12T16:20:11;29.35;;;15.07;;
22282;SDS011;11310;51.528;21.204;2022-11-12T16:23:00;25.10;;;14.23;;
22282;SDS011;11310;51.528;21.204;2022-11-12T16:25:49;28.55;;;14.43;;
22282;SDS011;11310;51.528;21.204;2022-11-12T16:28:36;27.50;;;13.98;;
22282;SDS011;11310;51.528;21.204;2022-11-12T16:31:24;29.58;;;14.43;;
22282;SDS011;11310;51.528;21.204;2022-11-12T16:34:11;31.73;;;14.13;;
22282;SDS011;11310;51.528;21.204;2022-11-12T16:36:59;30.45;;;14.90;;
22282;SDS011;11310;51.528;21.204;2022-11-12T16:39:47;28.10;;;13.90;;
22282;SDS011;11310;51.528;21.204;2022-11-12T16:42:37;27.92;;;13.95;;
22282;SDS011;11310;51.528;21.204;2022-11-12T16:45:31;24.52;;;13.07;;
22282;SDS011;11310;51.528;21.204;2022-11-12T16:48:21;30.02;;;14.07;;
22282;SDS011;11310;51.528;21.204;2022-11-12T16:51:10;25.10;;;13.07;;
22282;SDS011;11310;51.528;21.204;2022-11-12T16:54:01;29.42;;;13.90;;
22282;SDS011;11310;51.528;21.204;2022-11-12T16:56:49;23.23;;;13.32;;
22282;SDS011;11310;51.528;21.204;2022-11-12T16:59:39;24.85;;;12.85;;